Time;durP1;ratioP1;P1;durP2;ratioP2;P2;SDS_P1;SDS_P2;PMS_P1;PMS_P2;Temp;Humidity;BMP_temperature;BMP_pressure;BME280_temperature;BME280_humidity;BME280_pressure;Samples;Min_cycle;Max_cycle;Signal;HPM_P1;HPM_P2
2023/09/18 00:01:24;;;;;;;5.05;4.32;;;19.30;99.90;;;-141.84;66.25;21230.66;4978308;28;20207;-63
2023/09/18 00:03:53;;;;;;;4.97;4.55;;;19.30;99.90;;;-141.84;66.70;21250.97;4985872;28;20318;-63
2023/09/18 00:06:23;;;;;;;5.20;4.80;;;19.30;99.90;;;-141.84;66.71;21257.09;4985808;28;20318;-63
2023/09/18 00:08:52;;;;;;;5.25;4.75;;;19.20;99.90;;;-141.84;66.99;21244.88;4984875;28;20467;-62
2023/09/18 00:11:21;;;;;;;4.90;4.35;;;19.20;99.90;;;-141.84;66.98;21232.69;4958613;28;20261;-63
2023/09/18 00:13:49;;;;;;;4.80;4.40;;;19.20;99.90;;;-141.84;67.24;21246.91;4979069;28;20219;-63
2023/09/18 00:16:17;;;;;;;4.38;3.97;;;19.10;99.90;;;-141.84;67.25;21257.09;4986503;28;20243;-63
2023/09/18 00:18:46;;;;;;;4.75;4.35;;;19.10;99.90;;;-141.84;67.66;21263.19;4996384;28;20222;-63
2023/09/18 00:21:14;;;;;;;5.93;4.57;;;19.10;99.90;;;-141.84;67.97;21208.28;4985439;28;20327;-63
2023/09/18 00:23:43;;;;;;;4.97;4.53;;;19.10;99.90;;;-141.84;67.88;21204.22;4985411;28;20239;-63
2023/09/18 00:26:12;;;;;;;5.00;4.60;;;19.00;99.90;;;-141.84;68.24;21220.47;4985678;28;20318;-63
2023/09/18 00:28:40;;;;;;;4.90;4.50;;;19.00;99.90;;;-141.84;68.13;21196.09;4985337;28;20655;-62
2023/09/18 00:31:08;;;;;;;5.03;4.53;;;19.00;99.90;;;-141.84;68.31;21159.50;4981314;28;20209;-63
2023/09/18 00:33:37;;;;;;;4.70;4.30;;;19.00;99.90;;;-141.84;68.42;21187.97;4977149;28;20707;-63
2023/09/18 00:36:06;;;;;;;5.18;4.68;;;18.90;99.90;;;-141.84;68.53;21196.09;4966300;28;20235;-62
2023/09/18 00:38:34;;;;;;;4.68;4.28;;;18.90;99.90;;;-141.84;68.50;21175.75;4965828;28;20774;-62
2023/09/18 00:41:04;;;;;;;5.38;4.97;;;18.90;99.90;;;-141.84;68.84;21177.78;4978784;28;20677;-63
2023/09/18 00:43:32;;;;;;;5.18;4.68;;;18.90;99.90;;;-141.84;68.73;21161.53;4979490;28;20204;-62
2023/09/18 00:46:01;;;;;;;4.75;4.35;;;18.80;99.90;;;-141.84;69.03;21151.34;4984647;28;20745;-63
2023/09/18 00:48:29;;;;;;;5.88;4.28;;;18.80;99.90;;;-141.84;69.18;21116.78;4993515;28;20261;-62
2023/09/18 00:50:58;;;;;;;4.70;4.30;;;18.80;99.90;;;-141.84;69.26;21122.91;5004529;28;20233;-63
2023/09/18 00:53:27;;;;;;;4.85;4.20;;;18.80;99.90;;;-141.84;69.04;21153.41;4996637;28;20254;-62
2023/09/18 00:55:59;;;;;;;5.47;4.60;;;18.70;99.90;;;-141.84;69.15;21167.63;4989064;28;20258;-63
2023/09/18 00:58:30;;;;;;;4.50;4.10;;;18.70;99.90;;;-141.84;69.20;21129.00;4984590;28;20722;-63
2023/09/18 01:00:59;;;;;;;4.63;4.20;;;18.70;99.90;;;-141.84;69.56;21143.22;4985561;28;20310;-63
2023/09/18 01:03:28;;;;;;;4.85;4.45;;;18.70;99.90;;;-141.84;69.28;21171.69;4977831;28;20246;-63
2023/09/18 01:05:56;;;;;;;4.60;4.20;;;18.70;99.90;;;-141.84;69.48;21108.66;4984599;28;20611;-63
2023/09/18 01:08:24;;;;;;;4.88;4.40;;;18.70;99.90;;;-141.84;69.85;21173.72;4985073;28;20231;-62
2023/09/18 01:11:07;;;;;;;5.15;4.70;;;18.70;99.90;;;-141.84;70.08;21118.84;4967710;28;20236;-61
2023/09/18 01:13:46;;;;;;;5.22;4.72;;;18.60;99.90;;;-141.84;70.35;21090.38;4975914;28;20211;-63
2023/09/18 01:16:26;;;;;;;5.20;4.75;;;18.60;99.90;;;-141.84;70.49;21086.31;4985407;28;20242;-63
2023/09/18 01:18:54;;;;;;;6.80;4.90;;;18.50;99.90;;;-141.84;70.63;21131.03;4996523;28;20245;-63
2023/09/18 01:21:22;;;;;;;5.00;4.43;;;18.50;99.90;;;-141.84;70.56;21106.63;4983957;28;20235;-62
2023/09/18 01:23:52;;;;;;;4.78;4.38;;;18.50;99.90;;;-141.84;70.67;21102.56;4984122;28;20223;-61
2023/09/18 01:26:20;;;;;;;5.07;4.60;;;18.50;99.90;;;-141.84;70.97;21096.47;4984769;28;20314;-62
2023/09/18 01:28:48;;;;;;;4.78;4.38;;;18.50;99.90;;;-141.84;70.74;21078.16;4984250;28;20223;-63
2023/09/18 01:31:17;;;;;;;4.63;4.18;;;18.50;99.90;;;-141.84;70.44;21104.59;4976658;28;20294;-63
2023/09/18 01:33:48;;;;;;;4.90;4.50;;;18.50;99.90;;;-141.84;70.40;21080.19;4975268;28;20323;-62
2023/09/18 01:36:20;;;;;;;5.05;4.55;;;18.40;99.90;;;-141.84;70.55;21092.41;4965094;28;20240;-63
2023/09/18 01:38:52;;;;;;;5.22;4.78;;;18.40;99.90;;;-141.84;70.46;21082.25;4965057;28;20310;-63
2023/09/18 01:41:23;;;;;;;4.70;4.30;;;18.40;99.90;;;-141.84;70.30;21070.03;4972772;28;20670;-63
2023/09/18 01:43:51;;;;;;;5.38;4.88;;;18.40;99.90;;;-141.84;70.57;21090.38;4983850;28;20255;-63
2023/09/18 01:46:20;;;;;;;4.75;4.35;;;18.40;99.90;;;-141.84;70.85;21063.94;4984080;28;20208;-63
2023/09/18 01:48:48;;;;;;;5.85;4.53;;;18.40;99.90;;;-141.84;71.13;21045.63;4995548;28;20301;-64
2023/09/18 01:51:17;;;;;;;4.72;4.20;;;18.40;99.90;;;-141.84;71.28;21039.53;4987632;28;20273;-63
2023/09/18 01:53:45;;;;;;;4.70;4.32;;;18.40;99.90;;;-141.84;71.18;21043.59;4983789;28;20318;-63
2023/09/18 01:56:14;;;;;;;4.93;4.53;;;18.30;99.90;;;-141.84;71.28;21045.63;4983468;28;20269;-62
2023/09/18 01:58:43;;;;;;;4.93;4.50;;;18.30;99.90;;;-141.84;71.43;21043.59;4982978;28;20615;-63
2023/09/18 02:01:11;;;;;;;4.82;4.43;;;18.30;99.90;;;-141.84;72.03;21013.13;4975467;28;20230;-63
2023/09/18 02:03:41;;;;;;;4.60;4.20;;;18.30;99.90;;;-141.84;72.20;20996.84;4983868;28;20229;-62
2023/09/18 02:06:29;;;;;;;4.90;4.47;;;18.40;99.90;;;-141.84;72.65;21009.03;4983901;28;20237;-63
2023/09/18 02:08:58;;;;;;;4.93;4.43;;;18.20;99.90;;;-141.84;72.73;21025.31;4982015;28;20318;-62
2023/09/18 02:11:28;;;;;;;4.80;4.40;;;18.20;99.90;;;-141.84;72.58;20996.84;4956768;28;20611;-62
2023/09/18 02:13:57;;;;;;;5.00;4.60;;;18.10;99.90;;;-141.84;71.93;21004.97;4977989;28;20241;-63
2023/09/18 02:16:26;;;;;;;5.35;4.70;;;18.10;99.90;;;-141.84;72.27;21017.19;4983658;28;20677;-62
2023/09/18 02:18:56;;;;;;;6.38;4.70;;;18.10;99.90;;;-141.84;72.58;21017.19;4995774;28;20688;-61
2023/09/18 02:21:25;;;;;;;5.72;5.22;;;18.10;99.90;;;-141.84;73.07;20972.47;4982076;28;20428;-60
2023/09/18 02:23:54;;;;;;;5.07;4.63;;;18.10;99.90;;;-141.84;73.44;20982.63;4983084;28;20313;-59
2023/09/18 02:26:25;;;;;;;5.25;4.85;;;18.00;99.90;;;-141.84;73.48;20968.38;4983487;28;20230;-59
2023/09/18 02:28:55;;;;;;;5.30;4.80;;;18.00;99.90;;;-141.84;73.50;20962.28;4983514;28;20234;-60
2023/09/18 02:31:23;;;;;;;5.18;4.72;;;18.00;99.90;;;-141.84;73.36;20974.50;4975756;28;20298;-60
2023/09/18 02:33:52;;;;;;;5.30;4.82;;;18.00;99.90;;;-141.84;73.41;20929.75;4974033;28;20279;-60
2023/09/18 02:36:20;;;;;;;5.60;5.07;;;17.90;99.90;;;-141.84;72.76;20980.59;4964280;28;20290;-60
2023/09/18 02:38:48;;;;;;;5.03;4.57;;;18.00;99.90;;;-141.84;72.56;20972.47;4964098;28;20311;-59
2023/09/18 02:41:17;;;;;;;5.53;5.03;;;18.00;99.90;;;-141.84;72.32;21007.00;4970023;28;20370;-60
2023/09/18 02:43:45;;;;;;;5.13;4.65;;;18.00;99.90;;;-141.84;72.48;20982.63;4982397;28;20227;-59
2023/09/18 02:46:14;;;;;;;5.60;5.00;;;18.00;99.90;;;-141.84;72.56;21013.13;4983599;28;20650;-61
2023/09/18 02:48:43;;;;;;;5.13;4.72;;;18.00;99.90;;;-141.84;72.44;20990.75;4993388;28;20321;-60
2023/09/18 02:51:12;;;;;;;4.72;4.35;;;18.00;99.90;;;-141.84;72.55;20954.16;4983661;28;20702;-61
2023/09/18 02:53:41;;;;;;;4.90;4.50;;;18.00;99.90;;;-141.84;72.83;20978.56;4983361;28;20310;-59
2023/09/18 02:56:09;;;;;;;5.25;4.75;;;18.00;99.90;;;-141.84;72.98;20992.78;4983460;28;20318;-59
2023/09/18 02:58:38;;;;;;;5.35;4.85;;;18.00;99.90;;;-141.84;73.11;20980.59;4982380;28;20238;-60
2023/09/18 03:01:08;;;;;;;5.30;4.80;;;18.00;99.90;;;-141.84;73.56;20972.47;4982065;28;20250;-58
2023/09/18 03:03:38;;;;;;;5.47;5.05;;;17.90;99.90;;;-141.84;73.70;20923.66;4982781;28;20266;-60
2023/09/18 03:06:06;;;;;;;5.82;4.72;;;17.90;99.90;;;-141.84;74.24;20935.88;4983340;28;20241;-60
2023/09/18 03:08:36;;;;;;;5.30;4.80;;;17.90;99.90;;;-141.84;74.41;20901.31;4983131;28;20254;-59
2023/09/18 03:11:04;;;;;;;5.63;5.07;;;17.80;99.90;;;-141.84;74.36;20893.16;4968783;28;20653;-60
2023/09/18 03:13:33;;;;;;;7.05;6.40;;;17.80;99.90;;;-141.84;74.65;20905.38;4973677;28;20207;-59
2023/09/18 03:16:01;;;;;;;7.00;6.40;;;17.80;99.90;;;-141.84;74.95;20864.72;4987614;28;20310;-60
2023/09/18 03:18:29;;;;;;;6.03;5.43;;;17.70;99.90;;;-141.84;75.06;20878.94;4995132;28;20235;-60
2023/09/18 03:20:59;;;;;;;5.65;5.25;;;17.70;99.90;;;-141.84;75.17;20876.91;4996679;28;20219;-59
2023/09/18 03:23:27;;;;;;;5.57;5.07;;;17.70;99.90;;;-141.84;75.25;20850.47;4979392;28;20839;-59
2023/09/18 03:25:55;;;;;;;5.30;4.90;;;17.60;99.90;;;-141.84;75.37;20834.22;4986735;28;20239;-60
2023/09/18 03:28:23;;;;;;;6.00;5.43;;;17.60;99.90;;;-141.84;74.90;20854.53;4986328;28;20231;-60
2023/09/18 03:30:51;;;;;;;5.45;4.95;;;17.60;99.90;;;-141.84;74.72;20830.16;4986494;28;20294;-59
2023/09/18 03:33:19;;;;;;;5.28;4.85;;;17.60;99.90;;;-141.84;75.18;20848.44;4972829;28;20231;-60
2023/09/18 03:35:50;;;;;;;6.00;5.25;;;17.60;99.90;;;-141.84;74.96;20864.72;4966510;28;20766;-59
2023/09/18 03:38:20;;;;;;;5.60;5.10;;;17.60;99.90;;;-141.84;74.99;20862.69;4967337;28;20232;-59
2023/09/18 03:40:49;;;;;;;5.35;4.95;;;17.50;99.90;;;-141.84;75.41;20836.25;4977878;28;20223;-59
2023/09/18 03:43:17;;;;;;;5.55;5.13;;;17.60;99.90;;;-141.84;75.56;20858.59;4978696;28;20211;-59
2023/09/18 03:45:46;;;;;;;6.10;5.20;;;17.50;99.90;;;-141.84;75.40;20826.09;4986074;28;20235;-60
2023/09/18 03:48:14;;;;;;;6.10;5.50;;;17.50;99.90;;;-141.84;75.42;20817.94;4986172;28;20250;-60
2023/09/18 03:50:42;;;;;;;5.43;4.93;;;17.50;99.90;;;-141.84;75.83;20779.31;4985922;28;20227;-59
2023/09/18 03:53:11;;;;;;;5.80;5.22;;;17.60;99.90;;;-141.84;75.84;20807.78;4978524;28;20305;-61
2023/09/18 03:55:41;;;;;;;5.45;5.03;;;17.50;99.90;;;-141.84;75.45;20803.72;4986368;28;20239;-60
2023/09/18 03:58:10;;;;;;;5.45;4.93;;;17.40;99.90;;;-141.84;75.49;20785.44;4986134;28;20258;-59
2023/09/18 04:00:38;;;;;;;5.90;5.35;;;17.40;99.90;;;-141.84;75.57;20811.84;4985758;28;20325;-61
2023/09/18 04:03:06;;;;;;;5.53;5.05;;;17.40;99.90;;;-141.84;75.75;20781.38;4984901;28;20238;-59
2023/09/18 04:05:34;;;;;;;5.85;5.35;;;17.50;99.90;;;-141.84;75.68;20807.78;4982883;28;20227;-60
2023/09/18 04:08:03;;;;;;;6.47;5.20;;;17.40;99.90;;;-141.84;75.83;20795.59;4985921;28;20286;-60
2023/09/18 04:10:32;;;;;;;5.55;5.05;;;17.50;99.90;;;-141.84;75.19;20775.25;4985949;28;20270;-60
2023/09/18 04:13:02;;;;;;;5.72;5.32;;;17.40;99.90;;;-141.84;75.42;20763.06;4986163;28;20682;-60
2023/09/18 04:15:31;;;;;;;7.50;5.50;;;17.30;99.90;;;-141.84;75.77;20775.25;4978272;28;20235;-60
2023/09/18 04:17:59;;;;;;;5.45;4.95;;;17.30;99.90;;;-141.84;75.73;20744.78;4989421;28;20237;-60
2023/09/18 04:20:28;;;;;;;5.60;5.15;;;17.30;99.90;;;-141.84;76.20;20752.91;4998446;28;20228;-61
2023/09/18 04:23:23;;;;;;;5.13;4.65;;;17.30;99.90;;;-141.84;76.37;20767.13;4985166;28;20227;-60
2023/09/18 04:25:53;;;;;;;6.13;5.63;;;17.20;99.90;;;-141.84;76.53;20736.63;4985272;28;20227;-60
2023/09/18 04:28:23;;;;;;;6.00;5.50;;;17.20;99.90;;;-141.84;76.56;20724.44;4985698;28;20310;-61
2023/09/18 04:30:52;;;;;;;6.00;5.47;;;17.20;99.90;;;-141.84;76.69;20732.56;4986230;28;20235;-60
2023/09/18 04:33:22;;;;;;;6.15;5.65;;;17.10;99.90;;;-141.84;76.71;20720.38;4972643;28;20302;-61
2023/09/18 04:35:50;;;;;;;5.95;5.35;;;17.10;99.90;;;-141.84;76.70;20736.63;4965819;28;20319;-59
2023/09/18 04:38:19;;;;;;;6.28;5.68;;;17.10;99.90;;;-141.84;76.61;20748.84;4966069;28;20529;-60
2023/09/18 04:40:48;;;;;;;5.80;5.30;;;17.10;99.90;;;-141.84;77.14;20732.56;4980423;28;20314;-60
2023/09/18 04:43:16;;;;;;;6.00;5.40;;;17.10;99.90;;;-141.84;75.98;20738.66;4977141;28;20203;-60
2023/09/18 04:45:46;;;;;;;6.03;5.40;;;17.10;99.90;;;-141.84;76.13;20704.13;4985506;28;20574;-60
2023/09/18 04:48:14;;;;;;;5.90;5.13;;;17.10;99.90;;;-141.84;76.21;20724.44;4984616;28;20236;-60
2023/09/18 04:50:42;;;;;;;8.82;5.60;;;17.10;99.90;;;-141.84;75.80;20759.00;4984779;28;20227;-61
2023/09/18 04:53:10;;;;;;;6.50;5.90;;;17.10;99.90;;;-141.84;75.82;20775.25;4977515;28;20616;-59
2023/09/18 04:55:39;;;;;;;5.93;5.25;;;17.10;99.90;;;-141.84;75.72;20756.97;4984975;28;20712;-60
2023/09/18 04:58:07;;;;;;;6.50;5.55;;;17.20;99.90;;;-141.84;76.35;20726.47;4985388;28;20246;-61
2023/09/18 05:00:36;;;;;;;6.50;5.90;;;17.20;99.90;;;-141.84;76.01;20744.78;4985038;28;20227;-60
2023/09/18 05:03:06;;;;;;;7.03;5.68;;;17.20;99.90;;;-141.84;76.14;20712.25;4984807;28;20239;-61
2023/09/18 05:05:35;;;;;;;8.50;5.78;;;17.10;99.90;;;-141.84;76.32;20722.41;4982329;28;20246;-60
2023/09/18 05:08:04;;;;;;;6.82;6.13;;;17.10;99.90;;;-141.84;76.40;20712.25;4984770;28;20282;-61
2023/09/18 05:10:33;;;;;;;6.88;5.70;;;17.20;99.90;;;-141.84;76.26;20706.16;4970354;28;20235;-60
2023/09/18 05:13:02;;;;;;;6.88;5.55;;;17.20;99.90;;;-141.84;75.94;20750.88;4971400;28;20230;-59
2023/09/18 05:15:31;;;;;;;6.32;5.47;;;17.20;99.90;;;-141.84;75.96;20698.00;4977158;28;20239;-61
2023/09/18 05:18:01;;;;;;;6.05;5.45;;;17.20;99.90;;;-141.84;75.59;20736.63;4984524;28;20710;-61
2023/09/18 05:20:32;;;;;;;6.18;5.57;;;17.20;99.90;;;-141.84;75.25;20779.31;4978895;28;20279;-60
2023/09/18 05:23:01;;;;;;;7.93;6.85;;;17.20;99.90;;;-141.84;75.09;20759.00;4964813;28;20228;-62
2023/09/18 05:25:32;;;;;;;6.50;5.70;;;17.30;99.90;;;-141.84;74.59;20795.59;4957043;28;20239;-60
2023/09/18 05:28:04;;;;;;;8.18;5.80;;;17.30;99.90;;;-141.84;74.35;20809.81;4965451;28;20208;-60
2023/09/18 05:30:35;;;;;;;7.63;5.78;;;17.40;99.90;;;-141.84;74.33;20777.28;4964975;28;20240;-60
2023/09/18 05:33:05;;;;;;;6.85;6.15;;;17.40;99.90;;;-141.84;73.35;20842.34;4970423;28;20622;-61
2023/09/18 05:35:37;;;;;;;7.70;5.63;;;17.50;99.90;;;-141.84;73.54;20811.84;4967498;28;20243;-59
2023/09/18 05:38:06;;;;;;;5.60;5.10;;;17.60;99.90;;;-141.84;73.58;20838.28;4984599;28;20717;-60
2023/09/18 05:40:34;;;;;;;9.27;5.50;;;17.60;99.90;;;-141.84;74.01;20793.56;4984092;28;20242;-60
2023/09/18 05:43:03;;;;;;;7.03;5.30;;;17.60;99.90;;;-141.84;73.57;20807.78;4984281;28;20207;-60
2023/09/18 05:45:31;;;;;;;6.32;5.70;;;17.60;99.90;;;-141.84;73.69;20824.06;4976589;28;20241;-60
2023/09/18 05:48:03;;;;;;;6.55;5.32;;;17.60;99.90;;;-141.84;73.98;20832.19;4983711;28;20246;-61
2023/09/18 05:50:35;;;;;;;6.50;5.32;;;17.70;99.90;;;-141.84;73.64;20838.28;4983884;28;20305;-60
2023/09/18 05:53:04;;;;;;;6.03;4.95;;;17.80;99.90;;;-141.84;73.71;20850.47;4984240;28;20235;-60
2023/09/18 05:55:34;;;;;;;5.63;5.13;;;17.80;99.90;;;-141.84;72.90;20901.31;4980068;28;20258;-60
2023/09/18 05:58:04;;;;;;;6.13;5.53;;;17.90;99.90;;;-141.84;72.34;20885.03;4984089;28;20258;-59
2023/09/18 06:00:33;;;;;;;5.90;5.40;;;18.00;99.90;;;-141.84;72.25;20901.31;4983902;28;20262;-59
2023/09/18 06:03:01;;;;;;;5.97;5.35;;;18.00;99.90;;;-141.84;72.40;20907.41;4983011;28;20231;-60
2023/09/18 06:05:31;;;;;;;5.72;5.22;;;18.10;99.90;;;-141.84;72.36;20907.41;4957509;28;20235;-60
2023/09/18 06:08:01;;;;;;;5.70;5.00;;;18.10;99.90;;;-141.84;72.44;20915.53;4964570;28;20395;-61
2023/09/18 06:10:29;;;;;;;7.82;5.63;;;18.20;99.90;;;-141.84;71.18;20954.16;4965843;28;20236;-60
2023/09/18 06:13:03;;;;;;;5.35;4.95;;;18.20;99.90;;;-141.84;71.34;20950.09;4970406;28;20292;-60
2023/09/18 06:15:32;;;;;;;6.25;5.65;;;18.30;99.90;;;-141.84;71.44;20944.00;4978177;28;20294;-60
2023/09/18 06:18:00;;;;;;;5.68;5.18;;;18.30;99.90;;;-141.84;71.56;20984.66;4983050;28;20614;-60
2023/09/18 06:20:28;;;;;;;6.07;5.38;;;18.30;99.90;;;-141.84;71.06;20994.81;4983637;28;20222;-60
2023/09/18 06:22:56;;;;;;;5.47;4.97;;;18.40;99.90;;;-141.84;71.31;20976.53;4982913;28;20719;-60
2023/09/18 06:25:26;;;;;;;7.13;5.40;;;18.40;99.90;;;-141.84;70.96;20978.56;4976146;28;20302;-61
2023/09/18 06:27:54;;;;;;;6.53;5.05;;;18.40;99.90;;;-141.84;70.78;20972.47;4983606;28;20238;-61
2023/09/18 06:30:22;;;;;;;6.32;5.55;;;18.50;99.90;;;-141.84;70.69;21021.25;4983141;28;20710;-61
2023/09/18 06:32:52;;;;;;;5.90;5.40;;;18.60;99.90;;;-141.84;70.30;21013.13;4981088;28;20246;-60
2023/09/18 06:35:21;;;;;;;5.88;5.28;;;18.60;99.90;;;-141.84;69.79;21057.84;4961338;28;20226;-60
2023/09/18 06:37:49;;;;;;;6.60;5.60;;;18.80;99.90;;;-141.84;69.83;21061.91;4983347;28;20223;-61
2023/09/18 06:40:17;;;;;;;7.45;5.50;;;18.80;99.90;;;-141.84;69.60;21137.13;4983099;28;20210;-61
2023/09/18 06:42:47;;;;;;;7.00;5.88;;;18.90;99.90;;;-141.84;67.96;21163.56;4982817;28;20223;-60
2023/09/18 06:45:15;;;;;;;6.80;5.93;;;19.10;99.90;;;-141.84;68.31;21155.44;4977729;28;20663;-60
2023/09/18 06:47:44;;;;;;;6.03;5.25;;;19.20;99.90;;;-141.84;68.24;21175.75;4986838;28;20234;-61
2023/09/18 06:50:12;;;;;;;5.40;4.88;;;19.30;99.90;;;-141.84;67.92;21212.34;4986063;28;20718;-61
2023/09/18 06:52:41;;;;;;;6.45;4.90;;;19.50;99.90;;;-141.84;67.38;21248.94;4985025;28;20702;-61
2023/09/18 06:55:10;;;;;;;4.93;4.43;;;19.60;99.90;;;-141.84;66.90;21265.22;4980019;28;20302;-60
2023/09/18 06:57:38;;;;;;;7.80;5.18;;;19.80;99.90;;;-141.84;66.01;21320.09;4986476;28;20285;-61
2023/09/18 07:00:10;;;;;;;7.20;4.95;;;20.00;99.90;;;-141.84;65.58;21358.75;4985035;28;20314;-60
2023/09/18 07:02:38;;;;;;;5.20;4.70;;;20.20;99.90;;;-141.84;64.57;21460.41;4987471;28;20314;-61
2023/09/18 07:05:07;;;;;;;5.10;4.53;;;20.40;99.90;;;-141.84;63.42;21531.56;4984203;28;20238;-60
2023/09/18 07:07:35;;;;;;;6.95;4.90;;;20.90;99.90;;;-141.84;62.07;21663.72;4984029;28;20718;-61
2023/09/18 07:10:05;;;;;;;5.47;4.75;;;21.10;99.90;;;-141.84;60.98;21743.03;4976860;28;20223;-60
2023/09/18 07:12:33;;;;;;;5.25;4.75;;;21.40;99.90;;;-141.84;60.35;21789.78;4969843;28;20298;-61
2023/09/18 07:15:04;;;;;;;5.20;4.70;;;21.70;99.90;;;-141.84;59.13;21804.03;4986896;28;20298;-61
2023/09/18 07:17:36;;;;;;;5.18;4.70;;;21.90;99.90;;;-141.84;59.00;21867.06;4982620;28;20235;-61
2023/09/18 07:20:13;;;;;;;7.20;4.80;;;22.10;99.90;;;-141.84;58.78;21867.06;4986860;28;20247;-61
2023/09/18 07:22:47;;;;;;;5.05;4.47;;;22.20;99.90;;;-141.84;58.77;21858.94;4985869;28;20230;-61
2023/09/18 07:25:15;;;;;;;5.25;4.60;;;22.30;99.90;;;-141.84;58.48;21850.78;4979650;28;20211;-61
2023/09/18 07:27:44;;;;;;;6.25;4.50;;;22.30;99.90;;;-141.84;58.43;21893.50;4986657;28;20235;-61
2023/09/18 07:30:16;;;;;;;5.50;4.88;;;22.40;99.90;;;-141.84;58.16;21903.66;4966573;28;20233;-62
2023/09/18 07:32:46;;;;;;;5.20;4.68;;;22.40;99.90;;;-141.84;57.46;21940.25;4979913;28;20310;-60
2023/09/18 07:35:15;;;;;;;6.43;4.80;;;22.50;99.90;;;-141.84;57.15;22005.34;4959353;28;20235;-61
2023/09/18 07:37:46;;;;;;;4.90;4.50;;;22.50;99.90;;;-141.84;56.99;22027.72;4967239;28;20734;-63
2023/09/18 07:40:15;;;;;;;6.63;4.47;;;22.70;99.90;;;-141.84;55.64;22113.13;4974152;28;20200;-61
2023/09/18 07:42:44;;;;;;;5.45;4.47;;;22.90;99.90;;;-141.84;55.80;22196.50;4986545;28;20223;-61
2023/09/18 07:45:13;;;;;;;5.82;4.88;;;23.10;99.90;;;-141.84;54.11;22208.69;4979080;28;20238;-61
2023/09/18 07:47:41;;;;;;;4.85;4.32;;;23.20;99.90;;;-141.84;54.55;22200.56;4986046;28;20297;-60
2023/09/18 07:50:11;;;;;;;6.30;4.50;;;23.30;99.90;;;-141.84;54.21;22192.44;4985552;28;20227;-61
2023/09/18 07:52:39;;;;;;;5.78;4.70;;;23.30;99.90;;;-141.84;54.13;22200.56;4985988;28;20729;-60
2023/09/18 07:55:09;;;;;;;4.63;3.95;;;23.30;99.90;;;-141.84;54.06;22196.50;4983497;28;20254;-60
2023/09/18 07:57:38;;;;;;;5.03;4.38;;;23.40;99.90;;;-141.84;54.24;22170.06;4986894;28;20326;-60
2023/09/18 08:00:12;;;;;;;4.93;4.20;;;23.40;99.90;;;-141.84;54.43;22174.13;4986076;28;20699;-61
2023/09/18 08:02:41;;;;;;;5.80;4.30;;;23.30;99.90;;;-141.84;54.05;22229.03;4985622;28;20676;-60
2023/09/18 08:05:13;;;;;;;4.95;4.10;;;23.40;99.90;;;-141.84;52.96;22261.56;4978009;28;20243;-61
2023/09/18 08:07:41;;;;;;;6.40;4.40;;;23.50;99.90;;;-141.84;53.63;22212.75;4985919;28;20309;-60
2023/09/18 08:10:10;;;;;;;5.88;4.20;;;23.30;99.90;;;-141.84;53.29;22231.06;4975842;28;20327;-61
2023/09/18 08:12:38;;;;;;;3.92;3.53;;;23.30;99.90;;;-141.84;53.44;22227.00;4969559;28;20266;-61
2023/09/18 08:15:08;;;;;;;5.68;4.50;;;23.40;99.90;;;-141.84;53.20;22269.69;4985135;28;20239;-61
2023/09/18 08:17:37;;;;;;;5.32;4.30;;;23.40;99.90;;;-141.84;53.51;22267.66;4986106;28;20321;-60
2023/09/18 08:20:12;;;;;;;4.88;4.38;;;23.50;99.90;;;-141.84;53.04;22302.25;4985763;28;20235;-61
2023/09/18 08:22:43;;;;;;;4.10;3.80;;;23.50;99.90;;;-141.84;52.87;22349.00;4985535;28;20235;-62
2023/09/18 08:25:12;;;;;;;7.65;4.00;;;23.70;99.90;;;-141.84;52.92;22355.13;4978345;28;20269;-62
2023/09/18 08:27:43;;;;;;;5.82;4.38;;;23.70;99.90;;;-141.84;52.61;22361.22;4985235;28;20255;-62
2023/09/18 08:30:13;;;;;;;5.15;4.13;;;23.70;99.90;;;-141.84;53.11;22338.84;4985183;28;20231;-63
2023/09/18 08:32:43;;;;;;;6.47;4.30;;;23.80;99.90;;;-141.84;53.01;22361.22;4984871;28;20897;-62
2023/09/18 08:35:12;;;;;;;3.72;3.47;;;23.80;99.90;;;-141.84;52.55;22332.75;4958258;28;20667;-61
2023/09/18 08:37:43;;;;;;;5.00;4.07;;;23.70;99.90;;;-141.84;52.66;22332.75;4965581;28;20303;-62
2023/09/18 08:40:13;;;;;;;4.70;3.95;;;23.70;99.90;;;-141.84;52.54;22320.53;4972526;28;20234;-62
2023/09/18 08:42:47;;;;;;;5.20;4.00;;;23.80;99.90;;;-141.84;52.33;22383.59;4985068;28;20219;-61
2023/09/18 08:45:26;;;;;;;4.80;3.72;;;23.70;99.90;;;-141.84;52.09;22346.97;4977907;28;20231;-63
2023/09/18 08:47:56;;;;;;;4.10;3.65;;;23.80;99.90;;;-141.84;52.49;22334.78;4985024;28;20314;-62
2023/09/18 08:50:26;;;;;;;6.65;3.88;;;23.70;99.90;;;-141.84;52.61;22281.91;4984787;28;20711;-62
2023/09/18 08:52:56;;;;;;;7.00;3.95;;;23.70;99.90;;;-141.84;52.16;22381.56;4985033;28;20231;-63
2023/09/18 08:55:25;;;;;;;4.93;3.80;;;23.90;99.90;;;-141.84;51.62;22473.06;4977305;28;20235;-65
2023/09/18 08:57:56;;;;;;;4.43;3.55;;;24.10;99.90;;;-141.84;50.13;22595.09;4984514;28;20745;-63
2023/09/18 09:00:24;;;;;;;5.90;4.10;;;24.40;99.90;;;-141.84;49.76;22686.63;4984768;28;20269;-61
2023/09/18 09:02:54;;;;;;;4.82;3.83;;;24.60;99.90;;;-141.84;49.48;22753.75;4983872;28;20314;-62
2023/09/18 09:05:23;;;;;;;7.70;3.95;;;24.90;99.90;;;-141.84;48.67;22784.25;4976912;28;20785;-62
2023/09/18 09:07:52;;;;;;;5.43;4.18;;;25.00;99.90;;;-141.84;48.72;22778.16;4984067;28;20233;-63
2023/09/18 09:10:21;;;;;;;9.35;3.97;;;25.10;99.90;;;-141.84;48.87;22704.94;4984336;28;20215;-63
2023/09/18 09:12:54;;;;;;;5.10;3.80;;;25.10;99.90;;;-141.84;49.20;22674.41;4984761;28;20195;-62
2023/09/18 09:15:25;;;;;;;7.75;4.00;;;24.90;99.90;;;-141.84;49.48;22668.31;4977248;28;20235;-62
2023/09/18 09:18:05;;;;;;;5.18;3.70;;;24.90;99.90;;;-141.84;49.60;22666.28;4984252;28;20235;-62
2023/09/18 09:20:35;;;;;;;8.45;4.15;;;24.90;99.90;;;-141.84;50.10;22580.84;4983983;28;20231;-63
2023/09/18 09:23:06;;;;;;;8.38;3.80;;;24.70;99.90;;;-141.84;50.32;22554.41;4984361;28;20744;-62
2023/09/18 09:25:36;;;;;;;3.97;3.47;;;24.60;99.90;;;-141.84;50.94;22464.94;4981644;28;20211;-62
2023/09/18 09:28:07;;;;;;;6.00;4.00;;;24.30;99.90;;;-141.84;51.92;22393.75;4984795;28;20258;-62
2023/09/18 09:30:37;;;;;;;5.28;3.78;;;24.10;99.90;;;-141.84;52.56;22397.81;4983865;28;20326;-63
2023/09/18 09:33:07;;;;;;;4.53;3.55;;;24.00;99.90;;;-141.84;52.94;22308.34;4980564;28;20267;-62
2023/09/18 09:35:37;;;;;;;4.50;3.90;;;23.70;99.90;;;-141.84;53.12;22330.72;4964576;28;20231;-61
2023/09/18 09:38:11;;;;;;;5.03;3.75;;;23.80;99.90;;;-141.84;53.62;22269.69;4965352;28;20231;-61
2023/09/18 09:40:45;;;;;;;4.60;3.85;;;23.70;99.90;;;-141.84;53.71;22281.91;4975248;28;20242;-62
2023/09/18 09:43:15;;;;;;;5.07;4.28;;;23.60;99.90;;;-141.84;54.03;22312.41;4976101;28;20233;-61
2023/09/18 09:45:47;;;;;;;4.20;3.80;;;23.60;99.90;;;-141.84;53.58;22381.56;4983690;28;20295;-63
2023/09/18 09:48:15;;;;;;;5.75;3.97;;;23.80;99.90;;;-141.84;53.06;22450.69;4982741;28;20334;-62
2023/09/18 09:50:48;;;;;;;6.57;4.15;;;23.90;99.90;;;-141.84;52.03;22558.50;4983881;28;20280;-62
2023/09/18 09:53:18;;;;;;;5.90;5.30;;;24.20;99.90;;;-141.84;51.78;22591.03;4976175;28;20319;-61
2023/09/18 09:55:56;;;;;;;5.43;4.10;;;24.40;99.90;;;-141.84;51.61;22617.47;4983735;28;20234;-61
2023/09/18 09:58:32;;;;;;;5.20;3.58;;;24.70;99.90;;;-141.84;51.14;22706.97;4983441;28;20234;-63
2023/09/18 10:01:10;;;;;;;6.93;3.63;;;24.90;99.90;;;-141.84;50.76;22765.94;4984054;28;20202;-61
2023/09/18 10:03:40;;;;;;;4.22;3.70;;;25.00;99.90;;;-141.84;50.97;22650.00;4983235;28;20239;-62
2023/09/18 10:06:13;;;;;;;4.00;3.47;;;25.00;99.90;;;-141.84;51.64;22631.72;4983780;28;20754;-63
2023/09/18 10:08:42;;;;;;;6.72;4.25;;;24.90;99.90;;;-141.84;52.24;22566.63;4983731;28;20237;-62
2023/09/18 10:11:17;;;;;;;3.88;3.55;;;24.70;99.90;;;-141.84;52.92;22479.16;4976269;28;20734;-62
2023/09/18 10:13:55;;;;;;;6.30;3.90;;;24.60;99.90;;;-141.84;53.86;22434.44;4984016;28;20254;-61
2023/09/18 10:16:28;;;;;;;7.53;4.20;;;24.40;99.90;;;-141.84;53.89;22391.72;4983663;28;20250;-64